Time;durP1;ratioP1;P1;durP2;ratioP2;P2;SDS_P1;SDS_P2;PMS_P1;PMS_P2;Temp;Humidity;BMP_temperature;BMP_pressure;BME280_temperature;BME280_humidity;BME280_pressure;Samples;Min_cycle;Max_cycle;Signal;HPM_P1;HPM_P2
2023/10/08 00:00:39;;;;;;;0.52;0.52;;;13.30;99.90;;;;;;4946516;28;20039;-84
2023/10/08 00:02:45;;;;;;;0.80;0.80;;;13.30;99.90;;;;;;4974920;28;20521;-84
2023/10/08 00:05:14;;;;;;;0.75;0.60;;;13.30;99.90;;;;;;4975583;28;20070;-84
2023/10/08 00:07:42;;;;;;;1.63;0.70;;;13.20;99.90;;;;;;4976681;28;20051;-84
2023/10/08 00:10:09;;;;;;;2.47;0.77;;;13.20;99.90;;;;;;4963270;28;20376;-84
2023/10/08 00:12:34;;;;;;;1.08;0.70;;;13.20;99.90;;;;;;4977463;28;20039;-84
2023/10/08 00:15:00;;;;;;;1.13;0.60;;;13.30;99.90;;;;;;4978424;28;20043;-84
2023/10/08 00:17:26;;;;;;;1.35;0.73;;;13.20;99.90;;;;;;4945084;29;20035;-84
2023/10/08 00:19:52;;;;;;;2.30;0.85;;;13.30;99.90;;;;;;4962326;28;20061;-83
2023/10/08 00:22:19;;;;;;;0.65;0.45;;;13.30;99.90;;;;;;4931076;29;20294;-83
2023/10/08 00:24:54;;;;;;;2.00;0.80;;;13.30;99.90;;;;;;4962759;28;20047;-83
2023/10/08 00:27:21;;;;;;;1.25;0.55;;;13.30;99.90;;;;;;4960999;28;20540;-83
2023/10/08 00:29:47;;;;;;;1.45;0.90;;;13.30;99.90;;;;;;4975327;28;20146;-83
2023/10/08 00:32:13;;;;;;;0.73;0.70;;;13.30;99.90;;;;;;4977547;28;20040;-83
2023/10/08 00:34:42;;;;;;;1.05;0.90;;;13.30;99.90;;;;;;4978121;28;20039;-84
2023/10/08 00:37:10;;;;;;;0.82;0.73;;;13.20;99.90;;;;;;4960265;28;20489;-84
2023/10/08 00:39:38;;;;;;;1.95;0.93;;;13.20;99.90;;;;;;4994930;28;20054;-84
2023/10/08 00:42:06;;;;;;;1.38;0.77;;;13.20;99.90;;;;;;4958612;28;20536;-84
2023/10/08 00:44:42;;;;;;;1.08;0.70;;;13.20;99.90;;;;;;4979553;28;20489;-84
2023/10/08 00:47:11;;;;;;;1.98;0.90;;;13.20;99.90;;;;;;4994037;28;20105;-84
2023/10/08 00:49:48;;;;;;;0.98;0.88;;;13.30;99.90;;;;;;4976422;28;20043;-84
2023/10/08 00:55:07;;;;;;;0.80;0.70;;;13.30;99.90;;;;;;4978301;28;20117;-83
2023/10/08 00:57:39;;;;;;;1.27;0.60;;;13.20;99.90;;;;;;4946312;28;20043;-83
2023/10/08 01:00:17;;;;;;;1.92;0.80;;;13.30;99.90;;;;;;4959625;28;20039;-83
2023/10/08 01:02:48;;;;;;;0.77;0.77;;;13.30;99.90;;;;;;4957037;28;20047;-83
2023/10/08 01:05:23;;;;;;;1.27;0.75;;;13.30;99.90;;;;;;4946709;28;20040;-83
2023/10/08 01:07:51;;;;;;;2.00;0.80;;;13.20;99.90;;;;;;4993924;28;20183;-83
2023/10/08 01:10:19;;;;;;;2.67;1.00;;;13.30;99.90;;;;;;4992319;28;20043;-83
2023/10/08 01:13:03;;;;;;;3.50;0.90;;;13.30;99.90;;;;;;4976645;28;20388;-83
2023/10/08 01:15:30;;;;;;;2.72;0.98;;;13.30;99.90;;;;;;4994103;28;20047;-83
2023/10/08 01:18:15;;;;;;;2.28;0.80;;;13.30;99.90;;;;;;4944205;28;20533;-83
2023/10/08 01:23:13;;;;;;;1.70;0.80;;;13.30;99.90;;;;;;4991142;28;20397;-83
2023/10/08 01:25:43;;;;;;;0.90;0.80;;;13.30;99.90;;;;;;4960660;28;20047;-83
2023/10/08 01:28:18;;;;;;;2.30;0.90;;;13.30;99.90;;;;;;4977701;28;20038;-83
2023/10/08 01:30:46;;;;;;;1.90;0.95;;;13.30;99.90;;;;;;4976281;28;20126;-82
2023/10/08 01:33:14;;;;;;;1.50;0.90;;;13.40;99.90;;;;;;4944081;28;20047;-83
2023/10/08 01:35:40;;;;;;;1.30;1.02;;;13.40;99.90;;;;;;4943821;28;20039;-83
2023/10/08 01:38:07;;;;;;;1.40;1.00;;;13.40;99.90;;;;;;4945489;29;20130;-82
2023/10/08 01:40:33;;;;;;;1.60;1.02;;;13.40;99.90;;;;;;4977116;28;20039;-83
2023/10/08 01:42:59;;;;;;;2.42;1.00;;;13.40;99.90;;;;;;4944596;28;20094;-83
2023/10/08 01:45:26;;;;;;;2.17;0.95;;;13.40;99.90;;;;;;4961239;28;20142;-83
2023/10/08 01:47:54;;;;;;;3.22;1.15;;;13.40;99.90;;;;;;4944941;28;20042;-83
2023/10/08 01:50:21;;;;;;;2.28;1.10;;;13.40;99.90;;;;;;4976637;28;20431;-83
2023/10/08 01:52:53;;;;;;;2.58;1.00;;;13.40;99.90;;;;;;4946269;28;20090;-82
2023/10/08 01:55:19;;;;;;;1.40;1.10;;;13.40;99.90;;;;;;4945539;29;20114;-83
2023/10/08 01:57:46;;;;;;;2.90;1.10;;;13.40;99.90;;;;;;4975364;28;20078;-82
2023/10/08 02:00:19;;;;;;;3.75;1.30;;;13.40;99.90;;;;;;4975295;28;20058;-82
2023/10/08 02:02:50;;;;;;;2.80;1.20;;;13.40;99.90;;;;;;4975917;28;20042;-83
2023/10/08 02:05:18;;;;;;;2.03;1.10;;;13.30;99.90;;;;;;4975936;28;20768;-82
2023/10/08 02:07:48;;;;;;;2.10;1.27;;;13.40;99.90;;;;;;4976006;28;20123;-83
2023/10/08 02:10:14;;;;;;;1.65;1.10;;;13.40;99.90;;;;;;4976103;28;20043;-82
2023/10/08 02:12:40;;;;;;;2.88;1.02;;;13.50;99.90;;;;;;4975543;28;20086;-83
2023/10/08 02:15:07;;;;;;;3.38;1.30;;;13.50;99.90;;;;;;4976173;28;20123;-82
2023/10/08 02:17:34;;;;;;;1.60;1.10;;;13.50;99.90;;;;;;4977697;28;20035;-82
2023/10/08 02:20:04;;;;;;;2.58;1.10;;;13.40;99.90;;;;;;4960937;28;20077;-82
2023/10/08 02:22:30;;;;;;;2.05;1.10;;;13.40;99.90;;;;;;4944938;28;20045;-82
2023/10/08 02:25:01;;;;;;;4.53;1.30;;;13.40;99.90;;;;;;4941593;28;20134;-82
2023/10/08 02:27:27;;;;;;;1.98;1.13;;;13.50;99.90;;;;;;4976512;28;20051;-83
2023/10/08 02:29:54;;;;;;;2.70;1.10;;;13.50;99.90;;;;;;4992879;28;20145;-82
2023/10/08 02:32:22;;;;;;;3.28;1.38;;;13.50;99.90;;;;;;4975787;28;20134;-83
2023/10/08 02:34:49;;;;;;;5.28;1.35;;;13.50;99.90;;;;;;4974069;28;20472;-82
2023/10/08 02:37:15;;;;;;;4.88;1.27;;;13.50;99.90;;;;;;4960252;28;20051;-83
2023/10/08 02:39:41;;;;;;;4.00;1.40;;;13.40;99.90;;;;;;4944322;28;20035;-82
2023/10/08 02:42:10;;;;;;;2.20;0.85;;;13.50;99.90;;;;;;4942793;28;20046;-82
2023/10/08 02:44:41;;;;;;;3.22;1.38;;;13.50;99.90;;;;;;4958829;28;20469;-82
2023/10/08 02:47:20;;;;;;;1.63;0.90;;;13.40;99.90;;;;;;4976424;28;20115;-82
2023/10/08 02:49:48;;;;;;;1.60;1.00;;;13.40;99.90;;;;;;4941813;28;20090;-82
2023/10/08 02:52:15;;;;;;;2.58;1.10;;;13.40;99.90;;;;;;4975792;28;20040;-83
2023/10/08 02:54:41;;;;;;;1.95;1.15;;;13.40;99.90;;;;;;4941629;28;20051;-82
2023/10/08 02:57:14;;;;;;;3.72;1.17;;;13.40;99.90;;;;;;4961576;28;20528;-82
2023/10/08 02:59:40;;;;;;;2.05;1.10;;;13.40;99.90;;;;;;4993888;28;20712;-82
2023/10/08 03:02:21;;;;;;;3.20;1.17;;;13.40;99.90;;;;;;4962612;28;20071;-82
2023/10/08 03:04:48;;;;;;;3.90;1.10;;;13.40;99.90;;;;;;4978587;28;20772;-82
2023/10/08 03:07:32;;;;;;;3.03;1.10;;;13.50;99.90;;;;;;4980456;28;20077;-82
2023/10/08 03:10:18;;;;;;;3.28;1.10;;;13.50;99.90;;;;;;4981420;28;20098;-82
2023/10/08 03:12:49;;;;;;;5.35;1.60;;;13.50;99.90;;;;;;4964103;28;20049;-82
2023/10/08 03:15:37;;;;;;;2.38;1.10;;;13.50;99.90;;;;;;4979827;28;20485;-82
2023/10/08 03:18:14;;;;;;;2.30;0.85;;;13.40;99.90;;;;;;4964961;28;20050;-82
2023/10/08 03:20:46;;;;;;;2.63;1.05;;;13.40;99.90;;;;;;4962513;28;20108;-82
2023/10/08 03:25:56;;;;;;;2.03;0.88;;;13.40;99.90;;;;;;4993574;28;20050;-82
2023/10/08 03:28:24;;;;;;;1.65;0.82;;;13.40;99.90;;;;;;4960759;28;20374;-82
2023/10/08 03:30:51;;;;;;;2.03;0.98;;;13.40;99.90;;;;;;4947467;28;20047;-82
2023/10/08 03:33:23;;;;;;;3.53;1.10;;;13.40;99.90;;;;;;4948095;28;20047;-82
2023/10/08 03:35:54;;;;;;;3.50;1.03;;;13.30;99.90;;;;;;4992864;28;20039;-82
2023/10/08 03:38:44;;;;;;;4.10;1.23;;;13.40;99.90;;;;;;4947242;28;20513;-82
2023/10/08 03:41:16;;;;;;;2.25;0.90;;;13.40;99.90;;;;;;4979604;28;20031;-82
2023/10/08 03:46:30;;;;;;;4.72;1.30;;;13.40;99.90;;;;;;4977768;28;20055;-82
2023/10/08 03:48:57;;;;;;;2.78;1.13;;;13.40;99.90;;;;;;4993730;28;20055;-82
2023/10/08 03:51:27;;;;;;;2.60;1.17;;;13.40;99.90;;;;;;4945810;28;20047;-82
2023/10/08 03:54:07;;;;;;;3.50;1.10;;;13.40;99.90;;;;;;4996327;28;20035;-82
2023/10/08 03:56:36;;;;;;;2.63;1.00;;;13.30;99.90;;;;;;4979286;28;20043;-82
2023/10/08 03:59:12;;;;;;;3.25;1.38;;;13.30;99.90;;;;;;4978010;28;20039;-82
2023/10/08 04:01:54;;;;;;;3.05;1.23;;;13.30;99.90;;;;;;4975960;28;20031;-82
2023/10/08 04:04:24;;;;;;;2.53;1.10;;;13.30;99.90;;;;;;4979948;28;20039;-82
2023/10/08 04:06:51;;;;;;;3.42;1.40;;;13.40;99.90;;;;;;4976418;28;20508;-82
2023/10/08 04:11:53;;;;;;;5.53;1.45;;;13.30;99.90;;;;;;4993704;28;20079;-82
2023/10/08 04:14:20;;;;;;;3.85;1.42;;;13.30;99.90;;;;;;4994978;28;20035;-82
2023/10/08 04:16:46;;;;;;;2.85;1.20;;;13.30;99.90;;;;;;4978536;28;20079;-82
2023/10/08 04:19:12;;;;;;;2.40;1.10;;;13.30;99.90;;;;;;4964925;28;20547;-82
2023/10/08 04:21:42;;;;;;;2.13;1.02;;;13.30;99.90;;;;;;4994077;28;20040;-82
2023/10/08 04:24:08;;;;;;;2.95;1.20;;;13.30;99.90;;;;;;4963104;28;20046;-82
2023/10/08 04:26:39;;;;;;;3.47;1.25;;;13.30;99.90;;;;;;4977517;28;20493;-82
2023/10/08 04:29:06;;;;;;;8.52;1.80;;;13.20;99.90;;;;;;4994727;28;20147;-82
2023/10/08 04:31:43;;;;;;;4.55;1.30;;;13.20;99.90;;;;;;4978957;28;20070;-82
2023/10/08 04:34:15;;;;;;;3.75;1.38;;;13.20;99.90;;;;;;4972326;28;20047;-82
2023/10/08 04:37:11;;;;;;;4.60;1.40;;;13.20;99.90;;;;;;4960507;28;20039;-82
2023/10/08 04:39:33;;;;;;;2.80;1.20;;;13.20;99.90;;;;;;4946468;28;20081;-81
2023/10/08 04:42:09;;;;;;;3.88;1.33;;;13.20;99.90;;;;;;4962215;28;20067;-81
2023/10/08 04:44:38;;;;;;;3.78;1.30;;;13.20;99.90;;;;;;4944450;28;20050;-81
2023/10/08 04:47:04;;;;;;;3.55;1.30;;;13.20;99.90;;;;;;4958659;28;20069;-81
2023/10/08 04:49:32;;;;;;;3.28;1.25;;;13.20;99.90;;;;;;4962314;28;20035;-82
2023/10/08 04:52:16;;;;;;;3.08;1.27;;;13.20;99.90;;;;;;4961677;28;20039;-82
2023/10/08 04:54:50;;;;;;;2.65;1.27;;;13.20;99.90;;;;;;4942374;28;20037;-82
2023/10/08 04:57:18;;;;;;;3.65;1.30;;;13.20;99.90;;;;;;4976087;28;20039;-82
2023/10/08 04:59:46;;;;;;;3.65;1.48;;;13.20;99.90;;;;;;4961105;28;20035;-82
2023/10/08 05:08:00;;;;;;;3.20;1.10;;;13.20;99.90;;;;;;4992189;28;20054;-82
2023/10/08 05:13:15;;;;;;;3.15;1.50;;;13.20;99.90;;;;;;4976660;28;20453;-81
2023/10/08 05:15:49;;;;;;;5.78;1.67;;;13.30;99.90;;;;;;4943692;29;20035;-82
2023/10/08 05:28:36;;;;;;;4.65;1.30;;;13.20;99.90;;;;;;4975728;28;20050;-81
2023/10/08 05:36:18;;;;;;;3.13;1.40;;;13.20;99.90;;;;;;4976090;28;20054;-81
2023/10/08 05:39:00;;;;;;;3.05;1.30;;;12.90;99.90;;;;;;4961637;28;20040;-82
2023/10/08 05:41:38;;;;;;;6.47;1.67;;;13.20;99.90;;;;;;4972481;28;20062;-81
2023/10/08 05:44:23;;;;;;;5.07;1.55;;;13.10;99.90;;;;;;4961254;28;20295;-81
2023/10/08 05:57:38;;;;;;;5.32;1.42;;;13.10;99.90;;;;;;4992744;28;20042;-81
2023/10/08 06:03:00;;;;;;;6.20;1.73;;;13.10;99.90;;;;;;4958356;28;20054;-81
2023/10/08 06:05:23;;;;;;;5.25;1.55;;;13.10;99.90;;;;;;4944221;28;20189;-81
2023/10/08 06:10:56;;;;;;;5.40;1.55;;;13.10;99.90;;;;;;4977524;28;20047;-82
2023/10/08 06:13:16;;;;;;;5.45;1.60;;;13.00;99.90;;;;;;4968468;28;20054;-82
2023/10/08 06:18:27;;;;;;;5.35;1.50;;;13.00;99.90;;;;;;4978166;28;20051;-82
2023/10/08 06:21:11;;;;;;;4.90;1.50;;;13.00;99.90;;;;;;4959533;28;20035;-82
2023/10/08 06:23:41;;;;;;;5.70;1.45;;;13.10;99.90;;;;;;4977897;28;20098;-82
2023/10/08 06:28:41;;;;;;;4.95;1.45;;;13.10;99.90;;;;;;4982530;28;20259;-82
2023/10/08 06:31:11;;;;;;;6.90;1.70;;;13.10;99.90;;;;;;4979259;28;20283;-82
2023/10/08 06:33:41;;;;;;;4.45;1.45;;;13.10;99.90;;;;;;4967043;28;20043;-81
2023/10/08 06:38:41;;;;;;;3.20;1.33;;;13.10;99.90;;;;;;4986015;28;20058;-81
2023/10/08 06:44:24;;;;;;;5.03;1.40;;;13.20;99.90;;;;;;4981634;28;20158;-82
2023/10/08 06:46:32;;;;;;;5.15;1.60;;;13.20;99.90;;;;;;4968472;28;20119;-82
2023/10/08 06:48:59;;;;;;;7.30;1.67;;;13.30;99.90;;;;;;4966694;28;20046;-82
2023/10/08 06:51:26;;;;;;;3.42;1.30;;;13.30;99.90;;;;;;4971937;28;20055;-82
2023/10/08 06:53:54;;;;;;;4.53;1.25;;;13.30;99.90;;;;;;4946402;28;20378;-82
2023/10/08 06:56:19;;;;;;;6.10;1.55;;;13.30;99.90;;;;;;4973852;28;20047;-82
2023/10/08 06:58:49;;;;;;;4.90;1.45;;;13.30;99.90;;;;;;4966151;28;20051;-82
2023/10/08 07:01:21;;;;;;;4.72;1.60;;;13.40;99.90;;;;;;4983384;28;20039;-82
2023/10/08 07:03:51;;;;;;;6.45;1.63;;;13.40;99.90;;;;;;4952689;29;20119;-82
2023/10/08 07:06:25;;;;;;;5.18;1.67;;;13.40;99.90;;;;;;4967204;28;20134;-82
2023/10/08 07:08:55;;;;;;;4.13;1.33;;;13.50;99.90;;;;;;4952529;28;20385;-82
2023/10/08 07:11:22;;;;;;;3.80;1.30;;;13.50;99.90;;;;;;4985271;28;20047;-82
2023/10/08 07:13:48;;;;;;;5.28;1.50;;;13.60;99.90;;;;;;4985677;28;20513;-82
2023/10/08 07:16:17;;;;;;;6.40;1.63;;;13.60;99.90;;;;;;4982744;28;20031;-82
2023/10/08 07:18:55;;;;;;;5.93;1.50;;;13.60;99.90;;;;;;4969598;28;20043;-82
2023/10/08 07:21:38;;;;;;;5.28;1.50;;;13.60;99.90;;;;;;4969156;28;20549;-82
2023/10/08 07:24:09;;;;;;;4.32;1.48;;;13.60;99.90;;;;;;4985931;28;20057;-82
2023/10/08 07:26:39;;;;;;;4.70;1.52;;;13.70;99.90;;;;;;4981963;28;20046;-82
2023/10/08 07:29:09;;;;;;;7.07;1.65;;;13.70;99.90;;;;;;4984050;28;20074;-82
2023/10/08 07:31:36;;;;;;;8.55;1.98;;;13.60;99.90;;;;;;4996544;28;20043;-82
2023/10/08 07:34:15;;;;;;;5.95;1.70;;;13.70;99.90;;;;;;4963100;28;20394;-81
2023/10/08 07:36:43;;;;;;;5.90;1.83;;;13.60;99.90;;;;;;4955154;28;20674;-82
2023/10/08 07:39:22;;;;;;;11.90;1.83;;;13.60;99.90;;;;;;4979307;28;20497;-81
2023/10/08 07:41:49;;;;;;;6.55;1.60;;;13.60;99.90;;;;;;4946256;28;21410;-81
2023/10/08 07:44:15;;;;;;;5.32;1.50;;;13.70;99.90;;;;;;4975502;28;20375;-81
2023/10/08 07:46:41;;;;;;;5.28;1.48;;;13.70;99.90;;;;;;4964825;28;20051;-81
2023/10/08 07:49:06;;;;;;;6.07;1.70;;;13.70;99.90;;;;;;4982766;28;20504;-81
2023/10/08 07:51:33;;;;;;;6.40;1.60;;;13.70;99.90;;;;;;4981524;28;20622;-81
2023/10/08 07:53:59;;;;;;;7.38;1.60;;;13.70;99.90;;;;;;4979120;28;20050;-81
2023/10/08 07:56:25;;;;;;;6.25;1.70;;;13.70;99.90;;;;;;4948116;28;20299;-81
2023/10/08 07:58:53;;;;;;;3.75;1.27;;;13.70;99.90;;;;;;4984122;28;20039;-81
2023/10/08 08:01:20;;;;;;;7.03;1.80;;;13.80;99.90;;;;;;4965546;28;20375;-81
2023/10/08 08:03:48;;;;;;;5.28;1.52;;;13.90;99.90;;;;;;4981446;28;20066;-81
2023/10/08 08:06:15;;;;;;;5.97;1.55;;;13.90;99.90;;;;;;4981783;28;20043;-81
2023/10/08 08:08:41;;;;;;;4.88;1.40;;;13.90;99.90;;;;;;4963748;28;20039;-81
2023/10/08 08:11:17;;;;;;;7.22;1.70;;;14.00;99.90;;;;;;4966504;28;20468;-81
2023/10/08 08:13:43;;;;;;;5.45;1.50;;;14.10;99.90;;;;;;4982629;28;20051;-81
2023/10/08 08:16:20;;;;;;;6.25;1.67;;;14.10;99.90;;;;;;4967300;28;20106;-81
2023/10/08 08:18:59;;;;;;;10.00;1.98;;;14.20;99.90;;;;;;4965982;28;20035;-82
2023/10/08 08:21:25;;;;;;;7.60;1.60;;;14.20;99.90;;;;;;4948981;28;20554;-82
2023/10/08 08:23:52;;;;;;;5.97;1.67;;;14.20;99.90;;;;;;4950029;28;20035;-82
2023/10/08 08:26:32;;;;;;;4.65;1.58;;;14.20;99.90;;;;;;4970114;28;20043;-82
2023/10/08 08:29:01;;;;;;;6.90;1.60;;;14.30;99.90;;;;;;4956263;28;20051;-82
2023/10/08 08:31:31;;;;;;;4.25;1.40;;;14.30;99.90;;;;;;4981357;28;20047;-83
2023/10/08 08:33:59;;;;;;;5.63;1.52;;;14.30;99.90;;;;;;4965683;28;20079;-82
2023/10/08 08:36:31;;;;;;;6.68;1.67;;;14.30;99.90;;;;;;4982705;28;20050;-82
2023/10/08 08:38:57;;;;;;;6.10;1.40;;;14.30;99.90;;;;;;4980534;28;20454;-82
2023/10/08 08:41:24;;;;;;;5.07;1.48;;;14.40;99.90;;;;;;5001315;28;20065;-82
2023/10/08 08:44:04;;;;;;;6.13;1.60;;;14.40;99.90;;;;;;4965553;28;20027;-83
2023/10/08 08:46:35;;;;;;;3.88;1.40;;;14.40;99.90;;;;;;4954300;28;1134224;-82
2023/10/08 08:49:04;;;;;;;4.75;1.52;;;14.40;99.90;;;;;;4981042;28;20109;-83
2023/10/08 08:51:31;;;;;;;6.72;1.60;;;14.50;99.90;;;;;;4983142;28;20058;-83
2023/10/08 08:54:00;;;;;;;5.95;1.65;;;14.50;99.90;;;;;;4974523;28;20039;-82
2023/10/08 08:56:27;;;;;;;5.50;1.77;;;14.60;99.90;;;;;;4974598;28;20051;-83
2023/10/08 08:58:54;;;;;;;5.90;1.80;;;14.60;99.90;;;;;;4975571;28;20053;-82
2023/10/08 09:01:20;;;;;;;4.88;1.70;;;14.70;99.90;;;;;;4963534;28;20118;-83
2023/10/08 09:03:48;;;;;;;3.75;1.40;;;14.70;99.90;;;;;;4983224;28;20050;-82
2023/10/08 09:06:14;;;;;;;6.15;1.50;;;14.80;99.90;;;;;;4980470;28;20039;-82
2023/10/08 09:08:45;;;;;;;6.72;1.77;;;14.90;99.90;;;;;;4954484;28;20564;-83
2023/10/08 09:11:20;;;;;;;8.05;1.73;;;15.00;99.90;;;;;;4967316;28;20051;-83
2023/10/08 09:13:46;;;;;;;7.05;1.40;;;15.00;99.90;;;;;;4965638;28;20406;-83
2023/10/08 09:16:14;;;;;;;5.07;1.55;;;15.00;99.90;;;;;;4959076;28;20039;-82
2023/10/08 09:18:43;;;;;;;8.02;1.95;;;15.00;99.90;;;;;;4948680;28;20043;-83
2023/10/08 09:21:15;;;;;;;6.78;1.73;;;15.10;99.90;;;;;;4947807;28;20449;-83
2023/10/08 09:23:43;;;;;;;5.57;1.60;;;15.20;99.90;;;;;;4977298;28;20072;-83
2023/10/08 09:26:18;;;;;;;7.22;2.08;;;15.20;99.90;;;;;;4945900;28;20055;-82
2023/10/08 09:28:47;;;;;;;7.55;1.58;;;15.30;99.90;;;;;;4976301;28;20465;-83
2023/10/08 09:31:13;;;;;;;6.18;1.50;;;15.30;99.90;;;;;;4961878;28;20121;-82
2023/10/08 09:33:40;;;;;;;5.03;1.40;;;15.40;99.90;;;;;;4963094;28;20101;-83
2023/10/08 09:36:10;;;;;;;10.32;1.45;;;15.40;99.90;;;;;;4958933;28;20066;-82
2023/10/08 09:38:37;;;;;;;4.95;1.35;;;15.30;99.90;;;;;;4972152;28;21588;-82
2023/10/08 09:41:03;;;;;;;5.25;1.50;;;15.30;99.90;;;;;;4943217;28;20513;-82
2023/10/08 09:43:31;;;;;;;7.57;1.90;;;15.40;99.90;;;;;;4988799;28;20803;-81
2023/10/08 09:46:18;;;;;;;6.15;1.75;;;15.40;99.90;;;;;;4969219;28;20465;-81
2023/10/08 09:48:53;;;;;;;3.85;1.30;;;15.50;99.90;;;;;;4975464;28;20035;-81
2023/10/08 09:51:18;;;;;;;9.32;1.88;;;15.50;99.90;;;;;;4974159;28;20043;-81
2023/10/08 09:54:18;;;;;;;4.60;1.35;;;15.50;99.90;;;;;;4957127;28;20098;-81
2023/10/08 09:56:44;;;;;;;6.43;1.70;;;15.60;99.90;;;;;;4974335;28;20539;-81
2023/10/08 09:59:11;;;;;;;5.70;1.58;;;15.70;99.90;;;;;;4977288;28;20041;-81
2023/10/08 10:01:39;;;;;;;4.90;1.38;;;15.60;99.90;;;;;;4941706;28;20131;-81
2023/10/08 10:04:28;;;;;;;9.77;1.75;;;15.60;99.90;;;;;;4974054;28;20035;-81
2023/10/08 10:07:00;;;;;;;6.60;1.42;;;15.60;99.90;;;;;;4992201;28;20411;-81
2023/10/08 10:09:26;;;;;;;6.22;1.85;;;15.60;99.90;;;;;;4946177;28;20474;-81
2023/10/08 10:11:54;;;;;;;7.90;1.60;;;15.70;99.90;;;;;;4991938;28;20520;-81
2023/10/08 10:14:25;;;;;;;4.72;1.50;;;15.70;99.90;;;;;;4993520;28;20051;-81
2023/10/08 10:17:29;;;;;;;7.03;1.73;;;15.70;99.90;;;;;;4992185;28;20214;-80
2023/10/08 10:19:56;;;;;;;6.95;1.40;;;15.70;99.90;;;;;;4954351;28;20138;-81
2023/10/08 10:22:35;;;;;;;6.10;1.52;;;15.60;99.90;;;;;;4943675;28;20508;-80
2023/10/08 10:25:14;;;;;;;5.72;1.70;;;15.70;99.90;;;;;;4925640;28;20117;-81
2023/10/08 10:27:55;;;;;;;5.90;1.70;;;15.70;99.90;;;;;;4975447;28;20051;-82
2023/10/08 10:30:23;;;;;;;5.13;1.50;;;15.70;99.90;;;;;;4942162;28;20490;-81
2023/10/08 10:32:52;;;;;;;7.63;1.58;;;15.70;99.90;;;;;;4993439;28;20644;-81
2023/10/08 10:35:19;;;;;;;7.22;1.60;;;15.80;99.90;;;;;;4990381;28;20343;-81
2023/10/08 10:37:52;;;;;;;3.67;1.35;;;15.80;99.90;;;;;;4959484;28;20043;-82
2023/10/08 10:40:58;;;;;;;5.75;1.30;;;15.90;99.90;;;;;;4993901;28;20036;-81
2023/10/08 10:43:20;;;;;;;5.38;1.50;;;16.00;99.90;;;;;;4974251;28;20486;-81
2023/10/08 10:45:47;;;;;;;8.30;1.73;;;16.10;99.90;;;;;;4977759;28;20493;-81
2023/10/08 10:48:21;;;;;;;5.90;1.67;;;16.20;99.90;;;;;;4960169;28;20055;-81
2023/10/08 10:53:33;;;;;;;5.47;1.45;;;16.30;99.90;;;;;;4943413;28;20055;-81
2023/10/08 10:56:09;;;;;;;7.40;1.70;;;16.30;99.90;;;;;;4972075;28;20046;-82
2023/10/08 10:58:41;;;;;;;4.88;1.50;;;16.20;99.90;;;;;;4976339;28;20110;-81
2023/10/08 11:01:24;;;;;;;6.80;1.80;;;16.20;99.90;;;;;;4959206;28;20511;-81
2023/10/08 11:03:57;;;;;;;6.05;1.50;;;16.20;99.90;;;;;;4956145;28;20039;-81
2023/10/08 11:06:25;;;;;;;7.38;1.70;;;16.30;99.90;;;;;;4974657;28;20588;-81
2023/10/08 11:08:52;;;;;;;5.07;1.40;;;16.30;99.90;;;;;;4959568;28;20132;-81
2023/10/08 11:11:27;;;;;;;6.55;1.60;;;16.30;99.90;;;;;;4976383;28;20524;-81
2023/10/08 11:14:03;;;;;;;8.55;1.65;;;16.20;99.90;;;;;;4960637;28;20094;-81
2023/10/08 11:16:31;;;;;;;9.82;2.00;;;16.20;99.90;;;;;;4975365;28;20036;-81
2023/10/08 11:19:06;;;;;;;7.75;1.70;;;16.30;99.90;;;;;;4958589;28;20039;-81
2023/10/08 11:21:33;;;;;;;5.47;1.67;;;15.90;99.90;;;;;;4978225;28;20131;-81
2023/10/08 11:24:01;;;;;;;9.68;1.75;;;16.30;99.90;;;;;;4949181;29;20509;-81
2023/10/08 11:26:38;;;;;;;6.85;1.80;;;16.30;99.90;;;;;;4947365;28;20497;-81
2023/10/08 11:29:06;;;;;;;4.13;1.30;;;16.30;99.90;;;;;;4961765;28;20043;-81
2023/10/08 11:31:35;;;;;;;7.03;1.60;;;16.30;99.90;;;;;;4978060;28;20046;-80
2023/10/08 11:34:08;;;;;;;4.93;1.35;;;16.30;99.90;;;;;;4981154;28;20440;-81
2023/10/08 11:36:43;;;;;;;6.97;1.80;;;16.30;99.90;;;;;;4978905;28;20506;-81
2023/10/08 11:39:13;;;;;;;5.75;1.42;;;16.30;99.90;;;;;;4997451;28;20039;-81
2023/10/08 11:41:50;;;;;;;5.70;1.60;;;16.30;99.90;;;;;;4979056;28;20211;-81
2023/10/08 11:44:19;;;;;;;5.43;1.52;;;16.30;99.90;;;;;;4979257;28;20126;-81
2023/10/08 11:46:47;;;;;;;5.55;1.60;;;16.30;99.90;;;;;;4963922;28;20520;-81
2023/10/08 11:49:25;;;;;;;7.60;1.70;;;16.30;99.90;;;;;;4997583;28;20689;-81
2023/10/08 11:51:52;;;;;;;6.90;1.50;;;16.40;99.90;;;;;;4979495;28;20401;-81
2023/10/08 11:54:20;;;;;;;7.70;1.90;;;16.40;99.90;;;;;;4963841;28;20058;-81
2023/10/08 11:56:47;;;;;;;6.93;1.65;;;16.50;99.90;;;;;;4962441;28;20089;-81
2023/10/08 11:59:13;;;;;;;7.15;1.50;;;16.50;99.90;;;;;;4964577;28;20042;-81
2023/10/08 12:01:42;;;;;;;4.93;1.30;;;16.50;99.90;;;;;;4979543;28;20047;-81
2023/10/08 12:04:16;;;;;;;3.35;1.17;;;16.50;99.90;;;;;;4980912;28;20189;-81
2023/10/08 12:06:52;;;;;;;5.97;1.33;;;16.50;99.90;;;;;;4978458;28;20043;-81
2023/10/08 12:09:21;;;;;;;5.68;1.58;;;16.50;99.90;;;;;;4996317;28;20497;-81
2023/10/08 12:11:48;;;;;;;6.22;1.65;;;15.70;99.90;;;;;;4946285;28;20448;-81
2023/10/08 12:14:14;;;;;;;5.50;1.50;;;16.60;99.90;;;;;;4964486;28;20138;-81
2023/10/08 12:16:41;;;;;;;7.43;1.77;;;16.70;99.90;;;;;;4979400;28;20476;-82
2023/10/08 12:19:16;;;;;;;6.80;1.65;;;16.70;99.90;;;;;;4979101;28;20425;-81
2023/10/08 12:21:49;;;;;;;5.85;1.60;;;16.70;99.90;;;;;;4947151;29;20122;-81
2023/10/08 12:24:15;;;;;;;5.95;1.45;;;16.70;99.90;;;;;;4963389;28;20035;-81
2023/10/08 12:26:46;;;;;;;4.28;1.30;;;16.70;99.90;;;;;;4962817;28;20128;-81
2023/10/08 12:29:19;;;;;;;8.17;1.70;;;16.70;99.90;;;;;;4978510;28;20039;-81
2023/10/08 12:31:47;;;;;;;6.85;1.50;;;16.70;99.90;;;;;;4977919;28;20043;-81
2023/10/08 12:34:13;;;;;;;5.10;1.40;;;16.80;99.90;;;;;;4977861;28;20043;-81
2023/10/08 12:36:39;;;;;;;5.75;1.60;;;16.90;99.90;;;;;;4995418;28;20035;-82
2023/10/08 12:39:14;;;;;;;6.03;1.50;;;17.10;99.90;;;;;;4947215;28;20036;-81
2023/10/08 12:41:44;;;;;;;5.28;1.38;;;17.20;99.90;;;;;;4960875;28;20485;-81
2023/10/08 12:44:11;;;;;;;6.75;1.60;;;17.30;99.90;;;;;;4977911;28;20039;-81
2023/10/08 12:46:37;;;;;;;5.25;1.50;;;17.40;99.90;;;;;;4946551;29;20725;-82
2023/10/08 12:49:03;;;;;;;6.07;1.52;;;17.50;99.90;;;;;;4977815;28;20043;-82
2023/10/08 12:51:33;;;;;;;7.05;1.77;;;17.50;99.90;;;;;;4944098;28;20043;-82
2023/10/08 12:54:11;;;;;;;9.13;1.55;;;17.30;99.90;;;;;;4947340;28;20063;-82
2023/10/08 12:56:48;;;;;;;4.88;1.40;;;17.30;99.90;;;;;;4946840;28;20089;-82
2023/10/08 12:59:20;;;;;;;5.90;1.60;;;17.10;99.90;;;;;;4960276;28;20043;-81
2023/10/08 13:01:50;;;;;;;5.38;1.45;;;17.20;99.90;;;;;;4939935;28;20046;-81
2023/10/08 13:04:25;;;;;;;6.57;1.48;;;17.20;99.90;;;;;;4977052;28;20509;-81
2023/10/08 13:06:51;;;;;;;6.00;1.52;;;17.10;99.90;;;;;;4959637;28;20047;-82
2023/10/08 13:09:17;;;;;;;7.53;1.98;;;17.10;99.90;;;;;;4947211;28;20047;-81
2023/10/08 13:11:43;;;;;;;6.57;1.70;;;17.10;99.90;;;;;;4961825;28;20097;-81
2023/10/08 13:14:08;;;;;;;4.00;1.40;;;17.00;99.90;;;;;;4962300;28;21350;-81
2023/10/08 13:16:37;;;;;;;5.10;1.35;;;17.00;99.90;;;;;;4961075;28;20520;-81
2023/10/08 13:19:03;;;;;;;7.45;1.60;;;17.00;99.90;;;;;;4969113;28;20039;-82
2023/10/08 13:21:31;;;;;;;4.93;1.63;;;17.00;99.90;;;;;;4959855;28;20106;-82
2023/10/08 13:23:59;;;;;;;5.93;1.45;;;17.00;99.90;;;;;;4961931;28;20039;-82
2023/10/08 13:26:31;;;;;;;6.90;1.73;;;17.10;99.90;;;;;;4975876;28;20054;-82
2023/10/08 13:28:58;;;;;;;6.65;1.70;;;17.10;99.90;;;;;;4946016;28;20312;-81
2023/10/08 13:31:25;;;;;;;4.63;1.38;;;17.20;99.90;;;;;;4994141;28;20066;-81
2023/10/08 13:33:52;;;;;;;5.50;1.50;;;17.20;99.90;;;;;;4946771;28;20047;-81
2023/10/08 13:36:18;;;;;;;5.63;1.80;;;17.30;99.90;;;;;;4977165;28;20054;-82
2023/10/08 13:38:47;;;;;;;7.57;1.83;;;17.30;99.90;;;;;;4962735;28;20086;-82
2023/10/08 13:41:17;;;;;;;5.28;1.42;;;17.50;99.90;;;;;;4977297;28;20086;-82
2023/10/08 13:43:59;;;;;;;4.82;1.50;;;17.70;99.90;;;;;;4960362;28;20043;-81
2023/10/08 13:46:25;;;;;;;4.85;1.60;;;17.80;99.90;;;;;;4975009;28;20067;-81
2023/10/08 13:48:51;;;;;;;7.05;1.77;;;17.60;99.90;;;;;;4994106;28;20043;-81
2023/10/08 13:51:25;;;;;;;7.78;1.45;;;17.60;99.90;;;;;;4961358;28;20039;-81
2023/10/08 13:54:02;;;;;;;6.50;1.90;;;17.50;99.90;;;;;;4995372;28;20034;-82
2023/10/08 13:56:32;;;;;;;5.70;1.60;;;17.40;99.90;;;;;;4977412;28;20113;-82
2023/10/08 13:59:32;;;;;;;3.67;1.30;;;17.30;99.90;;;;;;4959136;28;20075;-81
2023/10/08 14:01:54;;;;;;;7.35;1.67;;;17.20;99.90;;;;;;4955540;28;20167;-81
2023/10/08 14:04:26;;;;;;;5.93;1.50;;;17.00;99.90;;;;;;4994608;28;20541;-81
2023/10/08 14:06:52;;;;;;;6.18;1.73;;;16.90;99.90;;;;;;4961199;28;20047;-81
2023/10/08 14:09:30;;;;;;;6.75;1.52;;;16.80;99.90;;;;;;4961983;28;20050;-82